Time;durP1;ratioP1;P1;durP2;ratioP2;P2;SDS_P1;SDS_P2;PMS_P1;PMS_P2;Temp;Humidity;BMP_temperature;BMP_pressure;BME280_temperature;BME280_humidity;BME280_pressure;Samples;Min_cycle;Max_cycle;Signal;HPM_P1;HPM_P2
2022/06/05 00:01:36;;;;;;;6.97;4.05;;;;;;;11.42;51.50;101574.91;5017546;28;20100;-68
2022/06/05 00:04:11;;;;;;;6.20;3.75;;;;;;;11.39;51.81;101571.66;5016922;28;20046;-69
2022/06/05 00:06:52;;;;;;;5.15;3.70;;;;;;;11.39;52.02;101567.13;5017183;28;20058;-70
2022/06/05 00:09:38;;;;;;;8.98;4.63;;;;;;;11.32;52.74;101567.88;5017678;28;20077;-68
2022/06/05 00:12:09;;;;;;;8.90;4.65;;;;;;;11.30;52.95;101559.94;5017406;28;20175;-68
2022/06/05 00:14:37;;;;;;;7.38;4.68;;;;;;;11.33;53.10;101562.34;5017267;28;20134;-69
2022/06/05 00:17:10;;;;;;;7.60;4.70;;;;;;;11.25;53.56;101562.22;5017241;28;20532;-70
2022/06/05 00:19:39;;;;;;;8.23;4.63;;;;;;;11.22;53.72;101562.50;5017350;28;20362;-69
2022/06/05 00:22:06;;;;;;;7.28;4.88;;;;;;;11.20;53.83;101568.00;5017427;28;20129;-69
2022/06/05 00:24:34;;;;;;;8.20;5.28;;;;;;;11.19;54.08;101573.53;5016592;28;20541;-70
2022/06/05 00:27:19;;;;;;;7.53;4.97;;;;;;;11.20;54.35;101569.84;5017961;28;20053;-69
2022/06/05 00:30:04;;;;;;;11.43;5.57;;;;;;;11.11;54.93;101570.72;5018568;28;20054;-70
2022/06/05 00:33:05;;;;;;;9.77;5.32;;;;;;;11.01;55.35;101572.56;5018680;28;20077;-70
2022/06/05 00:35:38;;;;;;;13.82;7.22;;;;;;;11.10;55.19;101574.38;4992657;28;20136;-70
2022/06/05 00:38:14;;;;;;;11.52;4.95;;;;;;;10.99;55.66;101575.38;5018183;28;20053;-70
2022/06/05 00:40:59;;;;;;;14.32;5.70;;;;;;;11.01;55.63;101570.72;5017786;28;20537;-69
2022/06/05 00:43:27;;;;;;;13.68;6.00;;;;;;;11.08;55.71;101565.63;5018329;28;20085;-70
2022/06/05 00:45:57;;;;;;;7.82;4.57;;;;;;;11.08;55.57;101566.47;5018127;28;20449;-69
2022/06/05 00:48:25;;;;;;;9.77;5.30;;;;;;;11.06;55.73;101559.56;5019128;28;20050;-70
2022/06/05 00:50:52;;;;;;;10.93;5.97;;;;;;;11.01;56.21;101569.88;5018623;28;20050;-69
2022/06/05 00:53:18;;;;;;;12.15;6.03;;;;;;;10.93;56.56;101568.75;5018481;28;20520;-69
2022/06/05 00:55:51;;;;;;;12.52;5.70;;;;;;;10.93;56.64;101567.91;5018923;28;20128;-70
2022/06/05 00:58:21;;;;;;;12.20;6.00;;;;;;;10.89;57.01;101561.97;5017451;28;20045;-70
2022/06/05 01:00:52;;;;;;;10.90;5.78;;;;;;;10.81;57.34;101556.47;5017865;28;20057;-70
2022/06/05 01:03:20;;;;;;;11.35;6.05;;;;;;;10.59;58.36;101559.44;5018391;28;20045;-69
2022/06/05 01:09:33;;;;;;;9.73;5.70;;;;;;;10.33;59.47;101570.63;5017106;28;20061;-69
2022/06/05 01:12:15;;;;;;;9.77;6.20;;;;;;;10.32;59.67;101574.31;5016785;28;20049;-69
2022/06/05 01:14:58;;;;;;;12.07;6.45;;;;;;;10.39;59.56;101569.25;5017096;28;20045;-70
2022/06/05 01:17:35;;;;;;;9.88;5.85;;;;;;;10.41;59.54;101573.50;5017379;28;20054;-70
2022/06/05 01:20:11;;;;;;;25.52;6.60;;;;;;;10.32;59.96;101568.94;5017275;28;20081;-70
2022/06/05 01:23:12;;;;;;;12.95;6.57;;;;;;;10.27;60.32;101564.00;5016751;28;20118;-69
2022/06/05 01:25:47;;;;;;;15.52;6.43;;;;;;;10.19;60.52;101568.34;5016100;28;20074;-68
2022/06/05 01:28:19;;;;;;;14.63;6.72;;;;;;;10.20;60.61;101564.66;5015905;28;20152;-68
2022/06/05 01:31:10;;;;;;;12.45;7.43;;;;;;;10.19;60.81;101571.03;5016236;28;20089;-69
2022/06/05 01:33:43;;;;;;;16.35;7.32;;;;;;;10.18;60.92;101572.03;5014548;28;20062;-70
2022/06/05 01:36:27;;;;;;;10.63;6.97;;;;;;;10.19;61.01;101568.34;5015277;28;20042;-69
2022/06/05 01:39:00;;;;;;;15.23;7.05;;;;;;;10.23;60.88;101559.88;5014809;28;20081;-70
2022/06/05 01:41:50;;;;;;;11.93;7.18;;;;;;;10.19;61.31;101560.31;5014370;28;20056;-69
2022/06/05 01:44:23;;;;;;;10.35;7.38;;;;;;;10.18;61.29;101556.78;5014808;28;20137;-68
2022/06/05 01:46:51;;;;;;;12.60;7.18;;;;;;;10.12;61.62;101560.00;5014333;28;20082;-70
2022/06/05 01:49:26;;;;;;;9.68;7.28;;;;;;;10.09;62.00;101551.38;5014753;28;20050;-69
2022/06/05 01:52:14;;;;;;;12.75;8.00;;;;;;;10.07;62.17;101559.56;5014482;28;20141;-69
2022/06/05 01:55:17;;;;;;;10.60;7.35;;;;;;;9.96;62.78;101557.00;5014678;28;20046;-70
2022/06/05 01:57:44;;;;;;;16.33;7.90;;;;;;;10.03;62.86;101548.28;5014795;28;20089;-70
2022/06/05 02:00:17;;;;;;;16.10;8.18;;;;;;;9.84;63.66;101550.88;5014742;28;20140;-69
2022/06/05 02:03:06;;;;;;;15.00;7.93;;;;;;;9.75;63.97;101549.00;5014888;28;20053;-69
2022/06/05 02:05:45;;;;;;;13.32;8.38;;;;;;;9.80;64.00;101536.91;5014614;28;20049;-69
2022/06/05 02:08:21;;;;;;;12.70;8.35;;;;;;;9.71;64.54;101536.84;5015276;28;20104;-68
2022/06/05 02:11:19;;;;;;;12.88;8.32;;;;;;;9.73;64.41;101545.63;5014396;28;20058;-68
2022/06/05 02:13:47;;;;;;;11.35;7.75;;;;;;;9.79;64.20;101539.72;5011858;28;20050;-69
2022/06/05 02:16:13;;;;;;;14.57;8.88;;;;;;;9.67;64.84;101538.13;5017876;28;20132;-70
2022/06/05 02:18:40;;;;;;;10.45;7.80;;;;;;;9.66;64.81;101539.94;5017621;28;20054;-70
2022/06/05 02:21:07;;;;;;;16.83;8.18;;;;;;;9.66;64.76;101533.75;5017763;28;20458;-70
2022/06/05 02:23:37;;;;;;;13.20;7.90;;;;;;;9.60;65.20;101542.31;5017636;28;20054;-71
2022/06/05 02:26:06;;;;;;;13.68;8.10;;;;;;;9.55;65.50;101537.38;5019503;28;20045;-69
2022/06/05 02:28:33;;;;;;;11.18;8.13;;;;;;;9.60;65.38;101539.63;5021380;28;20081;-70
2022/06/05 02:31:18;;;;;;;14.73;8.18;;;;;;;9.64;65.33;101546.41;5020779;28;20050;-70
2022/06/05 02:34:16;;;;;;;15.70;8.45;;;;;;;9.52;65.98;101540.31;5020743;28;20050;-70
2022/06/05 02:37:13;;;;;;;14.57;8.52;;;;;;;9.38;66.36;101540.66;5021853;28;20066;-70
2022/06/05 02:39:49;;;;;;;16.52;9.07;;;;;;;9.28;67.00;101535.25;5021767;28;20489;-69
2022/06/05 02:42:25;;;;;;;13.88;8.65;;;;;;;9.28;66.93;101524.53;5020475;28;20148;-69
2022/06/05 02:44:55;;;;;;;11.93;8.55;;;;;;;9.28;66.97;101530.72;5021320;28;20049;-71
2022/06/05 02:47:38;;;;;;;13.57;8.88;;;;;;;9.22;67.40;101523.19;5021807;28;20132;-70
2022/06/05 02:50:34;;;;;;;16.08;8.85;;;;;;;9.14;67.79;101522.16;5021004;28;20085;-70
2022/06/05 02:53:04;;;;;;;17.30;9.30;;;;;;;9.07;68.13;101521.84;5020442;28;20144;-69
2022/06/05 02:55:31;;;;;;;15.82;9.43;;;;;;;8.97;68.73;101519.09;5021322;28;20132;-70
2022/06/05 02:57:57;;;;;;;19.40;10.57;;;;;;;8.95;68.76;101533.56;5020473;28;20441;-69
2022/06/05 03:00:26;;;;;;;13.88;9.32;;;;;;;8.98;68.90;101528.81;5020081;28;20136;-70
2022/06/05 03:05:39;;;;;;;13.52;9.27;;;;;;;8.99;68.88;101519.81;5020352;28;20124;-70
2022/06/05 03:08:08;;;;;;;16.55;10.45;;;;;;;8.97;69.17;101516.41;5020429;28;20054;-70
2022/06/05 03:10:35;;;;;;;14.20;9.60;;;;;;;9.06;69.00;101520.16;5020432;28;20046;-70
2022/06/05 03:13:01;;;;;;;16.95;9.40;;;;;;;9.12;68.67;101514.25;5019865;28;20077;-70
2022/06/05 03:15:29;;;;;;;19.20;9.60;;;;;;;9.05;68.85;101518.44;5021069;28;20056;-69
2022/06/05 03:17:56;;;;;;;17.70;9.93;;;;;;;9.07;69.10;101511.97;5019685;28;20132;-70
2022/06/05 03:20:23;;;;;;;16.65;10.02;;;;;;;9.12;68.89;101518.75;5020592;28;20122;-70
2022/06/05 03:22:51;;;;;;;14.20;8.63;;;;;;;9.26;68.26;101529.16;5020625;28;20072;-70
2022/06/05 03:25:20;;;;;;;15.65;9.55;;;;;;;9.33;68.09;101530.31;5019909;28;20117;-70
2022/06/05 03:27:47;;;;;;;12.30;8.60;;;;;;;9.45;67.68;101531.09;5020064;28;20085;-70
2022/06/05 03:30:15;;;;;;;17.40;9.20;;;;;;;9.48;67.45;101525.50;5021225;28;20141;-70
2022/06/05 03:32:43;;;;;;;19.55;10.00;;;;;;;9.41;67.47;101527.84;5020683;28;20144;-69
2022/06/05 03:35:10;;;;;;;14.85;10.27;;;;;;;9.36;67.79;101531.91;5020743;28;20049;-69
2022/06/05 03:37:37;;;;;;;12.57;9.38;;;;;;;9.44;67.54;101540.09;5018668;28;20140;-70
2022/06/05 03:40:15;;;;;;;14.10;9.70;;;;;;;9.48;67.23;101533.53;5021326;28;20136;-69
2022/06/05 03:42:43;;;;;;;11.13;9.20;;;;;;;9.47;67.41;101546.06;5022076;28;20080;-68
2022/06/05 03:45:14;;;;;;;16.90;10.00;;;;;;;9.37;67.38;101531.78;5020551;28;20080;-70
2022/06/05 03:47:41;;;;;;;14.57;9.27;;;;;;;9.27;67.97;101528.19;5019704;28;20053;-70
2022/06/05 03:50:10;;;;;;;24.55;9.48;;;;;;;9.22;67.78;101530.38;5019771;28;20517;-70
2022/06/05 03:52:37;;;;;;;16.08;9.45;;;;;;;9.19;67.98;101530.63;5019021;28;20077;-70
2022/06/05 03:55:04;;;;;;;14.65;9.27;;;;;;;9.19;67.79;101533.31;5001623;28;20074;-69
2022/06/05 03:57:31;;;;;;;17.25;9.73;;;;;;;9.25;67.54;101530.16;5018697;28;20485;-70
2022/06/05 03:59:57;;;;;;;12.95;9.27;;;;;;;9.25;67.28;101519.44;5018842;28;20054;-70
2022/06/05 04:02:25;;;;;;;16.08;9.68;;;;;;;9.29;67.11;101518.19;5018390;28;20070;-70
2022/06/05 04:04:52;;;;;;;17.20;8.90;;;;;;;9.24;67.12;101513.25;5018891;28;20045;-69
2022/06/05 04:07:19;;;;;;;17.05;8.77;;;;;;;9.34;66.62;101523.16;5017977;28;20085;-70
2022/06/05 04:09:46;;;;;;;14.43;8.50;;;;;;;9.46;66.36;101527.44;5017580;28;20129;-70
2022/06/05 04:12:12;;;;;;;16.50;9.18;;;;;;;9.50;65.50;101521.69;5017589;28;20100;-69
2022/06/05 04:14:39;;;;;;;16.10;9.10;;;;;;;9.47;65.35;101523.78;5017547;28;20057;-69
2022/06/05 04:17:05;;;;;;;16.25;7.53;;;;;;;9.54;64.59;101533.84;5016747;28;20050;-69
2022/06/05 04:19:32;;;;;;;11.20;7.70;;;;;;;9.62;63.98;101529.66;5017317;28;20141;-69
2022/06/05 04:22:00;;;;;;;11.15;7.22;;;;;;;9.64;63.67;101530.34;5016833;28;20084;-70
2022/06/05 04:24:26;;;;;;;10.85;7.00;;;;;;;9.76;63.34;101523.91;5017106;28;20077;-70
2022/06/05 04:26:53;;;;;;;14.23;7.57;;;;;;;9.76;63.10;101526.59;5016667;28;20046;-69
2022/06/05 04:29:19;;;;;;;14.40;7.47;;;;;;;9.82;62.88;101528.75;5016959;28;20054;-69
2022/06/05 04:31:47;;;;;;;13.25;7.35;;;;;;;9.83;62.80;101519.72;5017109;28;20060;-69
2022/06/05 04:34:19;;;;;;;14.32;7.85;;;;;;;9.83;62.93;101511.66;5016937;28;20058;-70
2022/06/05 04:36:47;;;;;;;10.73;6.85;;;;;;;9.85;63.19;101512.38;5016149;28;20137;-69
2022/06/05 04:39:13;;;;;;;11.65;7.55;;;;;;;9.97;62.64;101516.66;5016007;28;20140;-69
2022/06/05 04:41:41;;;;;;;11.43;7.30;;;;;;;10.00;62.16;101512.84;5015411;28;20054;-69
2022/06/05 04:44:12;;;;;;;17.42;7.45;;;;;;;9.97;62.17;101508.59;5015658;28;20077;-69
2022/06/05 04:46:39;;;;;;;11.43;7.30;;;;;;;10.00;62.36;101491.41;5015778;28;20498;-69
2022/06/05 04:49:08;;;;;;;14.23;7.78;;;;;;;9.85;62.72;101488.25;5015241;28;20289;-70
2022/06/05 04:51:36;;;;;;;9.68;7.03;;;;;;;9.89;63.03;101481.66;5015565;28;20482;-69
2022/06/05 04:54:05;;;;;;;10.85;7.10;;;;;;;9.92;63.16;101483.19;5015759;28;20450;-69
2022/06/05 04:56:32;;;;;;;15.73;8.02;;;;;;;9.85;63.53;101485.56;5015357;28;20085;-70
2022/06/05 04:59:01;;;;;;;16.10;8.57;;;;;;;9.89;63.57;101492.38;5015131;28;20112;-69
2022/06/05 05:01:35;;;;;;;14.70;7.85;;;;;;;9.95;63.74;101486.44;5015345;28;20050;-70
2022/06/05 05:04:05;;;;;;;11.85;8.15;;;;;;;9.95;63.80;101486.44;5015566;28;20057;-68
2022/06/05 05:06:33;;;;;;;11.93;7.80;;;;;;;10.08;63.76;101485.34;5015706;28;20046;-69
2022/06/05 05:09:00;;;;;;;12.30;7.00;;;;;;;10.19;63.29;101483.38;5015029;28;20145;-68
2022/06/05 05:11:27;;;;;;;15.65;7.80;;;;;;;10.23;62.82;101487.47;5016019;28;20456;-70
2022/06/05 05:13:55;;;;;;;13.80;8.07;;;;;;;10.22;62.64;101493.00;5014878;28;20137;-68
2022/06/05 05:16:22;;;;;;;12.32;7.22;;;;;;;10.20;62.52;101479.72;5015441;28;20217;-70
2022/06/05 05:18:49;;;;;;;10.40;7.53;;;;;;;10.15;62.84;101475.75;5015318;28;20132;-69
2022/06/05 05:21:18;;;;;;;12.02;7.78;;;;;;;10.07;62.38;101472.94;5015459;28;20081;-69
2022/06/05 05:23:46;;;;;;;10.13;7.13;;;;;;;10.13;62.38;101478.59;5016041;28;20501;-69
2022/06/05 05:26:19;;;;;;;15.52;7.50;;;;;;;10.19;62.21;101483.38;5014766;28;20144;-69
2022/06/05 05:28:46;;;;;;;13.13;7.82;;;;;;;10.26;62.32;101489.03;5014766;28;20090;-70
2022/06/05 05:31:26;;;;;;;12.55;7.63;;;;;;;10.37;62.38;101480.84;5015711;28;20057;-70
2022/06/05 05:33:54;;;;;;;12.15;8.02;;;;;;;10.43;62.09;101474.94;5015844;28;20174;-70
2022/06/05 05:36:22;;;;;;;15.88;7.70;;;;;;;10.53;62.14;101466.09;5016146;28;20159;-69
2022/06/05 05:44:29;;;;;;;13.68;7.13;;;;;;;10.53;62.33;101455.34;5015105;28;20053;-68
2022/06/05 05:46:56;;;;;;;12.70;7.15;;;;;;;10.66;62.16;101453.22;5016328;28;20129;-68
2022/06/05 05:49:22;;;;;;;10.98;7.40;;;;;;;10.74;62.14;101454.19;5016058;28;20128;-68
2022/06/05 05:51:49;;;;;;;12.48;7.43;;;;;;;10.76;62.15;101454.06;5016171;28;20489;-69
2022/06/05 05:54:16;;;;;;;14.30;7.95;;;;;;;10.87;61.93;101445.84;5015875;28;20049;-68
2022/06/05 05:56:42;;;;;;;13.38;7.40;;;;;;;11.02;61.67;101453.44;5016516;28;20046;-69
2022/06/05 05:59:09;;;;;;;11.55;7.78;;;;;;;11.05;61.20;101447.78;5016432;28;20054;-68
2022/06/05 06:01:36;;;;;;;13.52;7.20;;;;;;;11.10;60.75;101448.16;5015233;28;20046;-70
2022/06/05 06:04:03;;;;;;;12.00;7.47;;;;;;;11.22;60.92;101453.22;5015765;28;20081;-69
2022/06/05 06:06:32;;;;;;;14.30;7.43;;;;;;;11.29;59.86;101456.19;5015911;28;20049;-70
2022/06/05 06:08:59;;;;;;;11.13;6.95;;;;;;;11.29;59.58;101450.81;5015255;28;20449;-65
2022/06/05 06:11:26;;;;;;;10.88;6.57;;;;;;;11.41;59.83;101451.44;5014339;28;20096;-64
2022/06/05 06:13:53;;;;;;;13.63;7.35;;;;;;;11.51;59.75;101457.63;5013766;28;20057;-65
2022/06/05 06:16:19;;;;;;;13.10;6.93;;;;;;;11.57;59.29;101450.81;5014117;28;20136;-65
2022/06/05 06:18:46;;;;;;;9.80;7.25;;;;;;;11.68;59.28;101456.03;5014091;28;20049;-64
2022/06/05 06:21:13;;;;;;;10.52;6.70;;;;;;;11.84;59.43;101453.53;5014436;28;20467;-64
2022/06/05 06:23:40;;;;;;;12.18;7.43;;;;;;;11.99;58.77;101459.25;5014389;28;20106;-64
2022/06/05 06:26:08;;;;;;;13.68;7.13;;;;;;;12.19;58.37;101457.28;5015023;28;20049;-63
2022/06/05 06:28:34;;;;;;;11.20;6.80;;;;;;;12.23;58.30;101457.81;5014973;28;20053;-66
2022/06/05 06:31:09;;;;;;;11.82;6.70;;;;;;;12.36;57.80;101460.97;4997261;28;20069;-67
2022/06/05 06:33:37;;;;;;;10.63;6.70;;;;;;;12.49;57.39;101456.06;5013887;28;20050;-66
2022/06/05 06:36:08;;;;;;;14.70;6.97;;;;;;;12.67;57.24;101453.34;5014743;28;20104;-67
2022/06/05 06:38:54;;;;;;;10.63;6.90;;;;;;;12.65;57.00;101452.63;5014331;28;20053;-67
2022/06/05 06:41:21;;;;;;;13.80;7.22;;;;;;;12.76;56.48;101448.88;5013935;28;20088;-67
2022/06/05 06:43:49;;;;;;;9.95;6.20;;;;;;;12.99;56.49;101452.75;5014380;28;20474;-67
2022/06/05 06:46:16;;;;;;;10.20;6.47;;;;;;;13.26;56.17;101445.50;5014924;28;20081;-68
2022/06/05 06:48:43;;;;;;;10.85;7.07;;;;;;;13.37;54.79;101442.53;5015181;28;20077;-67
2022/06/05 06:51:10;;;;;;;12.05;6.93;;;;;;;13.46;54.74;101449.66;5014667;28;20054;-67
2022/06/05 06:53:38;;;;;;;10.90;6.97;;;;;;;13.69;54.46;101449.91;5015079;28;20467;-68
2022/06/05 06:56:07;;;;;;;11.43;6.70;;;;;;;14.05;53.41;101444.31;5014996;28;20054;-67
2022/06/05 06:58:34;;;;;;;16.52;7.05;;;;;;;14.09;52.65;101440.28;5014598;28;20081;-68
2022/06/05 07:01:01;;;;;;;10.10;6.72;;;;;;;14.29;52.50;101436.25;5015191;28;20494;-67
2022/06/05 07:03:28;;;;;;;14.25;6.47;;;;;;;14.56;52.40;101431.53;5015235;28;20144;-66
2022/06/05 07:05:54;;;;;;;10.10;6.28;;;;;;;14.58;51.19;101429.50;5015748;28;20501;-66
2022/06/05 07:08:20;;;;;;;7.97;5.63;;;;;;;14.79;51.25;101436.28;5015514;28;20470;-68
2022/06/05 07:10:47;;;;;;;8.75;5.82;;;;;;;15.04;50.40;101427.13;5015718;28;20096;-67
2022/06/05 07:13:14;;;;;;;12.85;6.40;;;;;;;15.52;49.29;101432.53;5020293;28;20140;-68
2022/06/05 07:15:40;;;;;;;10.65;6.03;;;;;;;15.87;48.25;101436.63;5020013;28;20439;-67
2022/06/05 07:18:07;;;;;;;9.18;5.50;;;;;;;15.94;47.71;101424.06;5020177;28;20081;-67
2022/06/05 07:20:36;;;;;;;11.38;5.70;;;;;;;16.20;46.52;101431.84;5019770;28;20234;-67
2022/06/05 07:23:04;;;;;;;10.23;5.55;;;;;;;16.31;46.77;101419.75;5019154;28;20096;-67
2022/06/05 07:25:32;;;;;;;10.93;6.38;;;;;;;16.53;46.03;101415.38;5019426;28;20137;-67
2022/06/05 07:27:59;;;;;;;8.27;5.45;;;;;;;16.86;45.06;101407.78;5019553;28;20049;-67
2022/06/05 07:30:26;;;;;;;10.25;5.25;;;;;;;16.99;44.42;101410.69;5019508;28;20115;-69
2022/06/05 07:32:53;;;;;;;8.23;5.50;;;;;;;17.10;44.08;101412.94;5018275;28;20140;-67
2022/06/05 07:35:20;;;;;;;9.63;5.15;;;;;;;17.57;43.43;101403.56;5018382;28;20141;-68
2022/06/05 07:37:47;;;;;;;9.52;5.25;;;;;;;17.46;42.69;101395.94;5018562;28;20145;-67
2022/06/05 07:40:39;;;;;;;7.30;5.80;;;;;;;17.68;42.47;101387.81;5017612;28;20054;-67
2022/06/05 07:43:05;;;;;;;9.27;5.55;;;;;;;17.40;43.13;101382.28;5017919;28;20132;-68
2022/06/05 07:45:32;;;;;;;10.85;5.07;;;;;;;17.96;43.09;101387.94;5017985;28;20085;-67
2022/06/05 07:47:58;;;;;;;5.50;4.82;;;;;;;18.21;41.25;101391.16;5017245;28;20413;-67
2022/06/05 07:50:25;;;;;;;13.68;5.60;;;;;;;18.46;41.20;101392.41;5017530;28;20090;-68
2022/06/05 07:55:36;;;;;;;6.72;4.32;;;;;;;19.05;38.84;101390.38;5017210;28;20430;-67
2022/06/05 07:58:03;;;;;;;6.10;4.32;;;;;;;19.58;38.38;101396.88;5016993;28;20063;-67
2022/06/05 08:00:30;;;;;;;8.48;4.68;;;;;;;19.93;37.71;101383.19;5016254;28;20137;-67
2022/06/05 08:02:56;;;;;;;10.00;4.15;;;;;;;20.04;36.09;101385.34;5016832;28;20077;-67
2022/06/05 08:05:23;;;;;;;9.27;4.90;;;;;;;19.43;37.89;101375.28;5017022;28;20398;-67
2022/06/05 08:07:49;;;;;;;6.07;4.50;;;;;;;19.57;38.13;101369.88;5015622;28;20085;-67
2022/06/05 08:10:17;;;;;;;8.05;4.55;;;;;;;19.71;37.92;101374.34;5016618;28;20085;-67
2022/06/05 08:12:45;;;;;;;7.32;4.40;;;;;;;20.12;38.03;101379.69;5016594;28;20092;-67
2022/06/05 08:15:13;;;;;;;7.50;4.72;;;;;;;20.06;36.69;101371.50;5015954;28;20050;-67
2022/06/05 08:17:40;;;;;;;10.00;4.20;;;;;;;19.33;36.89;101366.66;5017025;28;20530;-67
2022/06/05 08:20:09;;;;;;;5.68;3.15;;;;;;;19.58;37.54;101364.22;5016848;28;20516;-67
2022/06/05 08:22:36;;;;;;;7.43;4.00;;;;;;;20.20;36.08;101367.72;5015639;28;20093;-67
2022/06/05 08:25:03;;;;;;;6.63;3.95;;;;;;;20.54;36.05;101369.44;5016505;28;20451;-68
2022/06/05 08:27:29;;;;;;;6.45;3.70;;;;;;;20.30;35.91;101368.16;5017295;28;20469;-68
2022/06/05 08:29:57;;;;;;;4.93;3.38;;;;;;;20.43;35.28;101367.38;5017878;28;20561;-67
2022/06/05 08:32:28;;;;;;;5.07;3.17;;;;;;;20.12;35.55;101366.06;5016932;28;20064;-67
2022/06/05 08:34:55;;;;;;;8.75;3.22;;;;;;;20.26;37.50;101353.28;5016740;28;20050;-68
2022/06/05 08:43:20;;;;;;;5.70;3.38;;;;;;;20.83;34.77;101351.78;5017108;28;20497;-68
2022/06/05 08:46:26;;;;;;;3.30;3.00;;;;;;;21.12;33.42;101346.94;5017237;28;20069;-67
2022/06/05 08:49:09;;;;;;;5.88;3.50;;;;;;;20.91;33.78;101337.94;5017759;28;20105;-67
2022/06/05 08:51:47;;;;;;;7.82;3.75;;;;;;;20.95;32.42;101342.97;5017365;28;20490;-68
2022/06/05 08:54:17;;;;;;;8.32;3.30;;;;;;;21.09;31.42;101336.41;5016630;28;20136;-67
2022/06/05 08:56:47;;;;;;;6.65;3.08;;;;;;;21.35;31.68;101333.59;5017031;28;20136;-67
2022/06/05 08:59:31;;;;;;;5.85;2.70;;;;;;;21.85;32.93;101330.19;5015966;28;20140;-67
2022/06/05 09:02:31;;;;;;;4.10;2.60;;;;;;;22.22;30.02;101333.91;5016464;28;20229;-67
2022/06/05 09:05:24;;;;;;;9.68;3.33;;;;;;;22.39;29.90;101327.88;5015483;28;20104;-67
2022/06/05 09:07:55;;;;;;;5.70;2.72;;;;;;;22.29;31.82;101318.28;5015548;28;20129;-67
2022/06/05 09:10:36;;;;;;;5.03;2.53;;;;;;;22.66;29.59;101326.56;5016173;28;20081;-67
2022/06/05 09:13:28;;;;;;;4.40;2.72;;;;;;;23.07;28.75;101330.56;5015635;28;20142;-67
2022/06/05 09:16:08;;;;;;;4.15;2.65;;;;;;;23.10;28.99;101326.53;5015801;28;20165;-67
2022/06/05 09:18:37;;;;;;;9.70;2.70;;;;;;;22.54;29.58;101317.47;5015514;28;20050;-67
2022/06/05 09:21:36;;;;;;;4.65;2.80;;;;;;;22.03;29.62;101313.03;5015859;28;20085;-66
2022/06/05 09:24:28;;;;;;;4.25;2.38;;;;;;;21.63;30.02;101313.28;4984498;28;20081;-68
2022/06/05 09:27:09;;;;;;;4.82;2.53;;;;;;;21.79;32.11;101301.88;5008010;28;20050;-68
2022/06/05 09:29:45;;;;;;;5.20;2.40;;;;;;;22.67;30.00;101298.19;5015428;28;20081;-69
2022/06/05 09:32:24;;;;;;;7.47;2.70;;;;;;;22.97;29.01;101300.97;5015643;28;20132;-68
2022/06/05 09:35:12;;;;;;;3.63;2.30;;;;;;;23.23;27.77;101299.84;4997911;28;20413;-67
2022/06/05 09:37:51;;;;;;;3.63;2.22;;;;;;;22.99;29.78;101290.66;5015328;28;20073;-68
2022/06/05 09:40:28;;;;;;;3.15;2.30;;;;;;;23.53;29.16;101296.28;5015379;28;20523;-69
2022/06/05 09:43:01;;;;;;;6.00;2.03;;;;;;;24.06;26.99;101306.47;5014468;28;20144;-68
2022/06/05 09:46:08;;;;;;;2.40;1.95;;;;;;;23.73;28.38;101291.34;5014267;28;20057;-67
2022/06/05 09:48:49;;;;;;;3.97;1.98;;;;;;;24.28;27.04;101289.44;5014225;28;20053;-68
2022/06/05 09:51:17;;;;;;;4.68;2.03;;;;;;;24.70;25.90;101284.66;5013963;28;20050;-68
2022/06/05 09:53:56;;;;;;;2.80;1.73;;;;;;;24.78;25.99;101286.19;5014340;28;20081;-68
2022/06/05 09:56:36;;;;;;;3.13;2.30;;;;;;;24.72;25.85;101281.69;5014862;28;20042;-68
2022/06/05 09:59:17;;;;;;;3.65;2.03;;;;;;;24.66;25.26;101294.44;5013920;28;20141;-68
2022/06/05 10:01:50;;;;;;;3.20;2.13;;;;;;;24.35;26.54;101292.88;5014192;28;20046;-68
2022/06/05 10:04:20;;;;;;;2.50;2.00;;;;;;;24.72;25.95;101288.00;5014030;28;20057;-68
2022/06/05 10:06:53;;;;;;;5.97;2.42;;;;;;;24.60;25.84;101279.78;5013732;28;20141;-68
2022/06/05 10:09:25;;;;;;;4.10;2.10;;;;;;;24.41;25.79;101281.00;5013909;28;20057;-69
2022/06/05 10:11:59;;;;;;;3.30;1.98;;;;;;;23.62;27.96;101272.97;5014713;28;20125;-68
2022/06/05 10:14:45;;;;;;;3.83;2.38;;;;;;;23.48;27.80;101271.50;5014903;28;20485;-69
2022/06/05 10:17:30;;;;;;;5.43;2.60;;;;;;;23.33;28.50;101265.59;5014074;28;20078;-68
2022/06/05 10:20:35;;;;;;;3.45;2.60;;;;;;;23.43;28.73;101257.66;5014223;28;20459;-67
2022/06/05 10:23:22;;;;;;;4.68;2.10;;;;;;;23.85;29.30;101260.41;5013662;28;20042;-68
2022/06/05 10:25:53;;;;;;;4.35;2.60;;;;;;;24.57;27.14;101247.34;5013970;28;20096;-69
2022/06/05 10:28:24;;;;;;;3.47;2.83;;;;;;;23.91;28.03;101246.59;5014208;28;20105;-68
2022/06/05 10:30:56;;;;;;;5.00;3.05;;;;;;;23.31;29.68;101245.84;5014935;28;20053;-68
2022/06/05 10:33:41;;;;;;;6.75;2.80;;;;;;;23.54;29.07;101239.59;5014300;28;20054;-67
2022/06/05 10:36:22;;;;;;;2.95;2.10;;;;;;;23.37;30.22;101236.72;5015351;28;20054;-68
2022/06/05 10:39:10;;;;;;;4.90;2.50;;;;;;;23.82;29.30;101234.34;5014382;28;20073;-69
2022/06/05 10:41:43;;;;;;;4.68;2.88;;;;;;;23.27;30.09;101221.69;5014786;28;20129;-68
2022/06/05 10:44:27;;;;;;;7.63;3.40;;;;;;;23.02;30.88;101224.53;5014570;28;20502;-69
2022/06/05 10:47:04;;;;;;;9.77;3.47;;;;;;;22.20;32.75;101207.56;5015625;28;20089;-70
2022/06/05 10:49:42;;;;;;;6.70;3.10;;;;;;;23.33;30.60;101208.09;5017797;28;20050;-68
2022/06/05 10:52:21;;;;;;;14.30;3.22;;;;;;;22.85;31.79;101198.88;5017551;28;20082;-66
2022/06/05 10:54:57;;;;;;;6.97;2.90;;;;;;;22.77;31.45;101189.06;5018382;28;20050;-69
2022/06/05 10:57:32;;;;;;;11.00;3.33;;;;;;;22.53;34.50;101192.72;5018457;28;20041;-67
2022/06/05 11:00:15;;;;;;;7.22;3.53;;;;;;;21.98;35.16;101179.84;5017985;28;20073;-69
2022/06/05 11:02:45;;;;;;;9.48;3.72;;;;;;;21.99;34.25;101184.25;5017484;28;20054;-68
2022/06/05 11:05:46;;;;;;;7.45;3.00;;;;;;;21.83;36.30;101187.53;5017964;28;20136;-69
2022/06/05 11:08:39;;;;;;;8.15;3.67;;;;;;;21.29;36.87;101189.84;5016957;28;20078;-68
2022/06/05 11:14:07;;;;;;;5.78;3.50;;;;;;;20.92;37.87;101175.94;5016984;28;20081;-68
2022/06/05 11:17:11;;;;;;;6.57;3.85;;;;;;;20.96;36.96;101172.78;5017364;28;20049;-67
2022/06/05 11:20:10;;;;;;;7.93;3.70;;;;;;;20.96;35.99;101180.97;5017222;28;20053;-68
2022/06/05 11:22:55;;;;;;;4.35;3.72;;;;;;;21.28;35.71;101174.50;4985394;28;20056;-68
2022/06/05 11:25:26;;;;;;;3.72;2.92;;;;;;;21.38;36.69;101165.81;5017042;28;20073;-68
2022/06/05 11:27:58;;;;;;;6.85;3.75;;;;;;;21.93;35.18;101162.47;5017074;28;20085;-69
2022/06/05 11:30:40;;;;;;;8.30;3.58;;;;;;;22.50;34.10;101157.66;5016403;28;20132;-68
2022/06/05 11:33:23;;;;;;;12.65;3.03;;;;;;;22.46;33.53;101148.19;5016597;28;20077;-68
2022/06/05 11:36:14;;;;;;;6.40;3.22;;;;;;;22.47;33.84;101141.72;5016668;28;20132;-68
2022/06/05 11:38:45;;;;;;;7.87;2.90;;;;;;;21.63;33.94;101130.34;5016581;28;20053;-68
2022/06/05 11:41:44;;;;;;;4.82;3.35;;;;;;;21.45;35.35;101120.22;5016117;28;20061;-68
2022/06/05 11:44:38;;;;;;;7.07;3.55;;;;;;;21.30;35.11;101117.81;5003090;28;20465;-69
2022/06/05 11:47:06;;;;;;;4.20;3.63;;;;;;;21.25;35.73;101117.66;5017240;28;20061;-67
2022/06/05 11:50:05;;;;;;;12.07;3.85;;;;;;;21.05;36.38;101108.75;5016869;28;20466;-66
2022/06/05 11:52:51;;;;;;;5.18;3.35;;;;;;;21.03;36.04;101095.31;5015652;28;20096;-67
2022/06/05 11:55:35;;;;;;;36.30;3.90;;;;;;;20.92;36.85;101094.13;5015966;28;20136;-66
2022/06/05 11:58:10;;;;;;;5.70;4.03;;;;;;;20.91;36.83;101080.72;5014890;28;20132;-66
2022/06/05 12:01:00;;;;;;;4.68;3.45;;;;;;;20.93;37.02;101078.59;5016485;28;20076;-67
2022/06/05 12:03:40;;;;;;;6.10;3.47;;;;;;;20.89;36.97;101066.47;5016588;28;20088;-66
2022/06/05 12:06:21;;;;;;;5.65;3.10;;;;;;;20.82;37.44;101063.78;5016090;28;20060;-66
2022/06/05 12:08:54;;;;;;;3.93;3.33;;;;;;;20.92;36.72;101061.41;5015735;28;20077;-66
2022/06/05 12:11:25;;;;;;;3.95;3.53;;;;;;;21.15;36.72;101051.84;5015891;28;20145;-66
2022/06/05 12:14:16;;;;;;;5.78;2.75;;;;;;;21.26;34.23;101056.56;5016025;28;20107;-66
2022/06/05 12:16:58;;;;;;;7.45;2.92;;;;;;;21.10;35.52;101052.44;5015579;28;20516;-66